createdAt,value
2018-09-22T00:02:27.121Z,96.20
2018-09-22T00:04:56.025Z,96.20
2018-09-22T00:07:24.933Z,96.20
2018-09-22T00:09:53.885Z,96.30
2018-09-22T00:12:22.751Z,96.40
2018-09-22T00:14:51.684Z,96.30
2018-09-22T00:17:20.550Z,96.40
2018-09-22T00:19:49.765Z,96.40
2018-09-22T00:22:18.640Z,96.30
2018-09-22T00:24:47.549Z,96.40
2018-09-22T00:27:16.538Z,96.60
2018-09-22T00:29:45.362Z,96.50
2018-09-22T00:32:14.300Z,96.50
2018-09-22T00:34:43.236Z,96.40
2018-09-22T00:37:12.186Z,96.40
2018-09-22T00:39:41.169Z,96.30
2018-09-22T00:42:10.128Z,96.30
2018-09-22T00:44:39.082Z,96.20
2018-09-22T00:47:07.960Z,96.10
2018-09-22T00:49:37.065Z,96.00
2018-09-22T00:52:06.063Z,96.00
2018-09-22T00:54:35.057Z,95.90
2018-09-22T00:57:04.013Z,96.00
2018-09-22T00:59:32.932Z,96.00
2018-09-22T01:02:01.833Z,96.10
2018-09-22T01:04:30.796Z,96.20
2018-09-22T01:06:59.733Z,96.30
2018-09-22T01:09:28.621Z,96.30
2018-09-22T01:11:57.485Z,96.30
2018-09-22T01:14:26.428Z,96.20
2018-09-22T01:16:55.322Z,96.20
2018-09-22T01:19:24.180Z,96.20
2018-09-22T01:21:53.128Z,96.20
2018-09-22T01:24:22.021Z,96.20
2018-09-22T01:26:50.969Z,96.20
2018-09-22T01:29:19.841Z,96.30
2018-09-22T01:31:48.773Z,96.30
2018-09-22T01:34:17.662Z,96.30
2018-09-22T01:36:46.605Z,96.40
2018-09-22T01:39:15.488Z,96.40
2018-09-22T01:41:44.402Z,96.40
2018-09-22T01:44:13.377Z,96.30
2018-09-22T01:46:42.274Z,96.40
2018-09-22T01:49:11.241Z,96.40
2018-09-22T01:51:40.172Z,96.50
2018-09-22T01:54:09.028Z,96.50
2018-09-22T01:56:37.964Z,96.50
2018-09-22T01:59:06.880Z,96.60
2018-09-22T02:01:35.838Z,96.60
2018-09-22T02:04:04.772Z,96.60
2018-09-22T02:06:33.692Z,96.50
2018-09-22T02:09:02.668Z,96.50
2018-09-22T02:11:31.558Z,96.60
2018-09-22T02:14:00.453Z,96.60
2018-09-22T02:16:29.360Z,96.80
2018-09-22T02:18:58.244Z,96.70
2018-09-22T02:21:27.184Z,96.70
2018-09-22T02:23:56.057Z,96.60
2018-09-22T02:26:25.009Z,96.60
2018-09-22T02:28:53.901Z,96.60
2018-09-22T02:31:22.868Z,96.70
2018-09-22T02:33:51.748Z,96.60
2018-09-22T02:36:20.676Z,96.70
2018-09-22T02:38:49.658Z,96.80
2018-09-22T02:41:18.557Z,96.80
2018-09-22T02:43:47.512Z,96.90
2018-09-22T02:46:16.437Z,97.00
2018-09-22T02:48:45.342Z,97.00
2018-09-22T02:51:14.250Z,97.00
2018-09-22T02:53:43.160Z,97.00
2018-09-22T02:56:12.015Z,97.10
2018-09-22T02:58:40.983Z,97.10
2018-09-22T03:01:09.848Z,97.20
2018-09-22T03:03:38.758Z,97.80
2018-09-22T03:06:07.184Z,96.40
2018-09-22T03:08:36.091Z,94.50
2018-09-22T03:11:04.940Z,92.20
2018-09-22T03:13:33.817Z,91.60
2018-09-22T03:16:02.692Z,91.80
2018-09-22T03:18:31.572Z,90.50
2018-09-22T03:21:00.463Z,90.80
2018-09-22T03:23:29.384Z,89.40
2018-09-22T03:25:58.222Z,90.00
2018-09-22T03:28:27.120Z,89.30
2018-09-22T03:30:55.969Z,89.80
2018-09-22T03:33:24.865Z,89.20
2018-09-22T03:35:53.754Z,88.20
2018-09-22T03:38:22.644Z,86.90
2018-09-22T03:40:51.564Z,87.70
2018-09-22T03:43:20.556Z,88.50
2018-09-22T03:45:49.432Z,89.00
2018-09-22T03:48:18.333Z,89.10
2018-09-22T03:50:47.201Z,87.00
2018-09-22T03:53:16.112Z,86.30
2018-09-22T03:55:44.944Z,85.80
2018-09-22T03:58:13.840Z,86.70
2018-09-22T04:00:42.720Z,88.40
2018-09-22T04:03:11.636Z,88.50
2018-09-22T04:05:40.492Z,90.20
2018-09-22T04:08:09.462Z,90.90
2018-09-22T04:10:38.359Z,90.90
2018-09-22T04:13:07.253Z,91.40
2018-09-22T04:15:36.172Z,92.00
2018-09-22T04:18:05.062Z,92.40
2018-09-22T04:20:33.976Z,92.70
2018-09-22T04:23:02.841Z,92.10
2018-09-22T04:25:32.229Z,89.10
2018-09-22T04:28:01.181Z,86.30
2018-09-22T04:30:30.093Z,86.20
2018-09-22T04:32:58.997Z,86.40
2018-09-22T04:35:27.937Z,89.00
2018-09-22T04:37:56.809Z,89.20
2018-09-22T04:40:25.715Z,89.20
2018-09-22T04:42:54.648Z,88.90
2018-09-22T04:45:23.518Z,88.20
2018-09-22T04:47:52.411Z,88.30
2018-09-22T04:50:21.296Z,91.90
2018-09-22T04:52:50.195Z,87.50
2018-09-22T04:55:19.052Z,85.40
2018-09-22T04:57:48.040Z,83.30
2018-09-22T05:00:16.906Z,80.40
2018-09-22T05:02:46.113Z,86.80
2018-09-22T05:05:15.009Z,80.80
2018-09-22T05:07:43.950Z,80.90
2018-09-22T05:10:12.828Z,78.20
2018-09-22T05:12:41.734Z,77.20
2018-09-22T05:15:10.612Z,78.30
2018-09-22T05:17:39.511Z,78.30
2018-09-22T05:20:08.437Z,78.80
2018-09-22T05:22:37.333Z,79.60
2018-09-22T05:25:06.305Z,80.40
2018-09-22T05:27:35.232Z,81.60
2018-09-22T05:30:04.164Z,82.00
2018-09-22T05:32:33.040Z,81.90
2018-09-22T05:35:02.103Z,82.20
2018-09-22T05:37:31.007Z,84.60
2018-09-22T05:39:59.963Z,86.00
2018-09-22T05:42:28.828Z,86.50
2018-09-22T05:44:57.709Z,89.60
2018-09-22T05:47:27.641Z,90.40
2018-09-22T05:49:56.569Z,91.20
2018-09-22T05:52:25.431Z,91.60
2018-09-22T05:54:54.336Z,91.40
2018-09-22T05:57:23.296Z,91.90
2018-09-22T05:59:52.137Z,92.30
2018-09-22T06:02:21.043Z,92.40
2018-09-22T06:04:49.924Z,92.50
2018-09-22T06:07:18.902Z,91.40
2018-09-22T06:09:47.789Z,91.60
2018-09-22T06:12:16.682Z,91.40
2018-09-22T06:14:45.630Z,92.00
2018-09-22T06:17:14.721Z,92.20
2018-09-22T06:19:43.608Z,92.00
2018-09-22T06:22:12.521Z,91.50
2018-09-22T06:24:41.452Z,91.70
2018-09-22T06:27:10.429Z,91.40
2018-09-22T06:29:39.326Z,91.50
2018-09-22T06:32:08.191Z,91.80
2018-09-22T06:34:37.189Z,92.40
2018-09-22T06:37:06.063Z,92.40
2018-09-22T06:39:35.009Z,92.60
2018-09-22T06:42:03.858Z,93.00
2018-09-22T06:44:32.773Z,93.80
2018-09-22T06:47:01.624Z,94.10
2018-09-22T06:49:30.472Z,94.20
2018-09-22T06:51:59.593Z,94.30
2018-09-22T06:54:28.424Z,94.40
2018-09-22T06:56:57.890Z,94.50
2018-09-22T06:59:27.124Z,94.80
2018-09-22T07:01:56.005Z,95.00
2018-09-22T07:04:24.857Z,95.20
2018-09-22T07:06:53.728Z,95.00
2018-09-22T07:09:22.704Z,95.20
2018-09-22T07:11:51.676Z,95.10
2018-09-22T07:14:20.520Z,94.70
2018-09-22T07:16:49.425Z,94.40
2018-09-22T07:19:18.288Z,94.40
2018-09-22T07:21:52.369Z,94.70
2018-09-22T07:24:21.236Z,94.80
2018-09-22T07:26:50.108Z,95.30
2018-09-22T07:29:18.997Z,95.50
2018-09-22T07:31:47.878Z,95.70
2018-09-22T07:34:16.741Z,95.70
2018-09-22T07:36:45.612Z,95.10
2018-09-22T07:39:14.467Z,95.10
2018-09-22T07:41:43.387Z,95.30
2018-09-22T07:44:12.313Z,95.50
2018-09-22T07:46:41.207Z,95.70
2018-09-22T07:49:10.028Z,95.80
2018-09-22T07:51:38.924Z,95.50
2018-09-22T07:54:07.869Z,95.80
2018-09-22T07:56:36.709Z,95.80
2018-09-22T07:59:05.665Z,96.10
2018-09-22T08:01:34.501Z,96.20
2018-09-22T08:04:03.404Z,96.30
2018-09-22T08:06:32.316Z,95.90
2018-09-22T08:09:01.165Z,96.00
2018-09-22T08:11:30.129Z,95.90
2018-09-22T08:13:58.928Z,96.50
2018-09-22T08:16:27.831Z,96.50
2018-09-22T08:18:56.793Z,96.40
2018-09-22T08:21:25.765Z,96.30
2018-09-22T08:23:54.608Z,96.40
2018-09-22T08:26:23.497Z,96.50
2018-09-22T08:28:52.351Z,96.30
2018-09-22T08:31:21.240Z,96.30
2018-09-22T08:33:50.132Z,96.20
2018-09-22T08:36:19.074Z,96.60
2018-09-22T08:38:47.981Z,96.80
2018-09-22T08:41:16.813Z,96.50
2018-09-22T08:43:45.719Z,96.20
2018-09-22T08:46:14.623Z,96.10
2018-09-22T08:48:43.521Z,96.30
2018-09-22T08:51:12.476Z,96.30
2018-09-22T08:53:41.329Z,96.30
2018-09-22T08:56:10.250Z,96.30
2018-09-22T08:58:39.086Z,96.10
2018-09-22T09:01:07.972Z,96.10
2018-09-22T09:03:36.828Z,96.30
2018-09-22T09:06:05.784Z,96.50
2018-09-22T09:08:34.669Z,96.60
2018-09-22T09:11:03.574Z,96.60
2018-09-22T09:13:32.497Z,96.20
2018-09-22T09:16:01.364Z,96.30
2018-09-22T09:18:30.193Z,95.80
2018-09-22T09:20:59.088Z,95.80
2018-09-22T09:23:27.933Z,95.60
2018-09-22T09:25:56.831Z,95.60
2018-09-22T09:28:25.714Z,95.90
2018-09-22T09:30:54.614Z,95.90
2018-09-22T09:33:23.489Z,96.10
2018-09-22T09:35:52.460Z,95.80
2018-09-22T09:38:21.364Z,95.70
2018-09-22T09:40:50.309Z,95.90
2018-09-22T09:43:19.255Z,96.00
2018-09-22T09:45:48.340Z,96.10
2018-09-22T09:48:17.188Z,95.70
2018-09-22T09:50:46.084Z,94.70
2018-09-22T09:53:14.960Z,95.40
2018-09-22T09:55:43.852Z,95.70
2018-09-22T09:58:12.683Z,95.60
2018-09-22T10:00:44.516Z,95.80
2018-09-22T10:03:14.516Z,95.60
2018-09-22T10:05:43.676Z,95.30
2018-09-22T10:08:12.632Z,95.30
2018-09-22T10:10:41.757Z,94.80
2018-09-22T10:13:10.855Z,95.10
2018-09-22T10:15:39.704Z,94.80
2018-09-22T10:18:08.601Z,94.70
2018-09-22T10:20:37.494Z,94.30
2018-09-22T10:23:06.429Z,94.30
2018-09-22T10:25:35.320Z,94.20
2018-09-22T10:28:04.302Z,94.40
2018-09-22T10:30:33.176Z,94.50
2018-09-22T10:33:02.197Z,94.40
2018-09-22T10:35:31.122Z,94.60
2018-09-22T10:38:00.072Z,94.50
2018-09-22T10:40:28.984Z,94.60
2018-09-22T10:42:57.861Z,94.30
2018-09-22T10:45:26.844Z,94.20
2018-09-22T10:47:55.712Z,94.10
2018-09-22T10:50:24.604Z,93.90
2018-09-22T10:52:53.737Z,94.00
2018-09-22T10:55:22.720Z,94.10
2018-09-22T10:57:51.561Z,94.40
2018-09-22T11:00:20.484Z,94.40
2018-09-22T11:02:49.381Z,93.90
2018-09-22T11:05:18.261Z,94.10
2018-09-22T11:07:47.108Z,93.90
2018-09-22T11:10:15.996Z,93.40
2018-09-22T11:12:44.941Z,93.70
2018-09-22T11:15:14.028Z,93.60
2018-09-22T11:17:42.872Z,93.50
2018-09-22T11:20:11.774Z,93.20
2018-09-22T11:22:40.680Z,93.20
2018-09-22T11:25:09.928Z,93.40
2018-09-22T11:27:39.367Z,93.10
2018-09-22T11:30:08.471Z,93.30
2018-09-22T11:32:37.429Z,93.20
2018-09-22T11:35:06.303Z,93.20
2018-09-22T11:37:35.218Z,93.20
2018-09-22T11:40:04.208Z,93.40
2018-09-22T11:42:33.057Z,93.40
2018-09-22T11:45:02.285Z,93.30
2018-09-22T11:47:31.117Z,93.50
2018-09-22T11:49:59.988Z,93.50
2018-09-22T11:52:28.962Z,93.80
2018-09-22T11:54:57.804Z,93.00
2018-09-22T11:57:26.736Z,93.10
2018-09-22T11:59:55.996Z,93.30
2018-09-22T12:02:24.930Z,93.30
2018-09-22T12:04:55.275Z,93.50
2018-09-22T12:07:24.180Z,93.70
2018-09-22T12:09:53.044Z,93.50
2018-09-22T12:12:21.938Z,93.30
2018-09-22T12:14:50.945Z,93.20
2018-09-22T12:17:19.820Z,93.30
2018-09-22T12:19:48.702Z,93.30
2018-09-22T12:22:17.644Z,93.60
2018-09-22T12:24:46.502Z,93.60
2018-09-22T12:27:15.384Z,93.90
2018-09-22T12:29:44.229Z,94.10
2018-09-22T12:32:13.140Z,94.30
2018-09-22T12:34:42.008Z,94.30
2018-09-22T12:37:10.876Z,94.00
2018-09-22T12:39:39.736Z,94.10
2018-09-22T12:42:08.615Z,93.70
2018-09-22T12:44:37.485Z,93.40
2018-09-22T12:47:06.521Z,94.00
2018-09-22T12:49:35.352Z,93.90
2018-09-22T12:52:04.252Z,93.90
2018-09-22T12:54:33.123Z,93.80
2018-09-22T12:57:02.024Z,93.80
2018-09-22T12:59:30.868Z,94.00
2018-09-22T13:01:59.757Z,94.10
2018-09-22T13:04:28.616Z,93.80
2018-09-22T13:06:57.522Z,93.70
2018-09-22T13:09:26.377Z,93.50
2018-09-22T13:11:55.286Z,93.50
2018-09-22T13:14:24.172Z,93.20
2018-09-22T13:16:53.149Z,93.50
2018-09-22T13:19:22.008Z,93.70
2018-09-22T13:21:50.886Z,93.50
2018-09-22T13:24:19.751Z,93.80
2018-09-22T13:26:48.653Z,93.80
2018-09-22T13:29:17.522Z,93.90
2018-09-22T13:31:46.402Z,93.80
2018-09-22T13:34:15.256Z,93.90
2018-09-22T13:36:44.114Z,93.60
2018-09-22T13:39:13.580Z,93.80
2018-09-22T13:41:42.597Z,93.70
2018-09-22T13:44:11.468Z,94.10
2018-09-22T13:46:40.664Z,94.10
2018-09-22T13:49:09.568Z,94.20
2018-09-22T13:51:38.496Z,94.20
2018-09-22T13:54:07.377Z,94.20
2018-09-22T13:56:36.275Z,94.10
2018-09-22T13:59:05.144Z,94.30
2018-09-22T14:01:34.124Z,94.60
2018-09-22T14:04:02.996Z,94.60
2018-09-22T14:06:31.832Z,94.40
2018-09-22T14:09:00.725Z,94.60
2018-09-22T14:11:29.648Z,94.80
2018-09-22T14:13:58.557Z,94.70
2018-09-22T14:16:27.420Z,94.60
2018-09-22T14:18:56.281Z,94.50
2018-09-22T14:21:25.207Z,94.20
2018-09-22T14:23:54.101Z,94.10
2018-09-22T14:26:23.104Z,94.30
2018-09-22T14:28:51.965Z,94.10
2018-09-22T14:31:20.828Z,93.90
2018-09-22T14:33:49.768Z,93.90
2018-09-22T14:36:18.652Z,94.00
2018-09-22T14:38:47.684Z,94.20
2018-09-22T14:41:16.555Z,93.90
2018-09-22T14:43:45.404Z,93.80
2018-09-22T14:46:14.296Z,93.80
2018-09-22T14:48:43.129Z,93.90
2018-09-22T14:51:12.040Z,93.70
2018-09-22T14:53:40.963Z,93.50
2018-09-22T14:56:09.820Z,94.20
2018-09-22T14:58:38.696Z,93.80
2018-09-22T15:01:07.652Z,94.00
2018-09-22T15:03:36.633Z,93.80
2018-09-22T15:06:05.485Z,93.90
2018-09-22T15:08:34.370Z,93.90
2018-09-22T15:11:03.204Z,93.90
2018-09-22T15:13:32.108Z,93.90
2018-09-22T15:16:01.063Z,93.50
2018-09-22T15:18:29.950Z,93.60
2018-09-22T15:20:58.900Z,93.70
2018-09-22T15:23:27.822Z,93.80
2018-09-22T15:25:56.687Z,94.00
2018-09-22T15:28:25.542Z,94.00
2018-09-22T15:30:54.428Z,94.00
2018-09-22T15:33:23.290Z,94.10
2018-09-22T15:35:52.153Z,94.20
2018-09-22T15:38:21.005Z,94.10
2018-09-22T15:40:49.876Z,94.10
2018-09-22T15:43:18.945Z,94.10
2018-09-22T15:45:48.056Z,94.00
2018-09-22T15:48:17.135Z,94.00
2018-09-22T15:50:45.989Z,94.00
2018-09-22T15:53:14.940Z,94.00
2018-09-22T15:55:43.808Z,94.10
2018-09-22T15:58:12.680Z,94.10
2018-09-22T16:00:41.522Z,94.10
2018-09-22T16:03:10.416Z,94.20
2018-09-22T16:05:39.272Z,94.20
2018-09-22T16:08:08.177Z,94.20
2018-09-22T16:10:37.028Z,94.10
2018-09-22T16:13:06.033Z,94.30
2018-09-22T16:15:34.928Z,94.50
2018-09-22T16:18:03.812Z,94.60
2018-09-22T16:20:32.689Z,94.60
2018-09-22T16:23:01.585Z,94.50
2018-09-22T16:25:30.452Z,94.60
2018-09-22T16:27:59.325Z,94.90
2018-09-22T16:30:28.188Z,94.80
2018-09-22T16:32:57.088Z,94.70
2018-09-22T16:35:25.963Z,94.80
2018-09-22T16:37:54.865Z,94.90
2018-09-22T16:40:23.757Z,94.90
2018-09-22T16:42:52.628Z,95.00
2018-09-22T16:45:21.558Z,95.10
2018-09-22T16:47:50.430Z,95.20
2018-09-22T16:50:19.367Z,95.20
2018-09-22T16:52:48.296Z,95.20
2018-09-22T16:55:17.324Z,95.50
2018-09-22T16:57:46.221Z,95.50
2018-09-22T17:00:15.086Z,95.60
2018-09-22T17:02:44.037Z,95.70
2018-09-22T17:05:12.937Z,95.60
2018-09-22T17:07:41.869Z,95.60
2018-09-22T17:10:10.739Z,95.50
2018-09-22T17:12:39.624Z,95.60
2018-09-22T17:15:08.530Z,95.60
2018-09-22T17:17:37.416Z,95.50
2018-09-22T17:20:06.376Z,95.50
2018-09-22T17:22:35.328Z,95.40
2018-09-22T17:25:04.217Z,95.40
2018-09-22T17:27:33.156Z,95.30
2018-09-22T17:30:02.200Z,95.40
2018-09-22T17:32:31.228Z,95.40
2018-09-22T17:35:00.070Z,95.30
2018-09-22T17:37:29.161Z,95.40
2018-09-22T17:39:58.153Z,95.30
2018-09-22T17:42:26.997Z,95.30
2018-09-22T17:44:55.966Z,95.30
2018-09-22T17:47:24.883Z,95.20
2018-09-22T17:49:53.809Z,95.20
2018-09-22T17:52:22.710Z,95.20
2018-09-22T17:54:51.552Z,95.30
2018-09-22T17:57:20.490Z,95.30
2018-09-22T17:59:49.382Z,95.20
2018-09-22T18:02:18.853Z,95.30
2018-09-22T18:04:47.685Z,95.40
2018-09-22T18:07:16.598Z,95.40
2018-09-22T18:09:45.485Z,95.30
2018-09-22T18:12:14.349Z,95.40
2018-09-22T18:14:43.357Z,95.50
2018-09-22T18:17:12.243Z,95.50
2018-09-22T18:19:41.107Z,95.60
2018-09-22T18:22:10.032Z,95.50
2018-09-22T18:24:38.900Z,95.50
2018-09-22T18:27:08.035Z,95.30
2018-09-22T18:29:36.884Z,95.20
2018-09-22T18:32:06.044Z,95.20
2018-09-22T18:34:34.939Z,95.10
2018-09-22T18:37:03.865Z,95.00
2018-09-22T18:39:33.020Z,95.10
2018-09-22T18:42:01.987Z,95.20
2018-09-22T18:44:30.847Z,95.20
2018-09-22T18:46:59.720Z,95.20
2018-09-22T18:49:28.637Z,95.40
2018-09-22T18:51:57.644Z,95.50
2018-09-22T18:54:26.518Z,95.20
2018-09-22T18:56:55.384Z,95.10
2018-09-22T18:59:24.292Z,95.10
2018-09-22T19:01:53.153Z,95.30
2018-09-22T19:04:22.061Z,95.30
2018-09-22T19:06:50.900Z,95.40
2018-09-22T19:09:20.698Z,95.50
2018-09-22T19:11:49.562Z,95.50
2018-09-22T19:14:27.420Z,95.40
2018-09-22T19:17:30.177Z,95.50
2018-09-22T19:20:05.491Z,95.50
2018-09-22T19:22:43.749Z,95.60
2018-09-22T19:25:15.602Z,95.50
2018-09-22T19:27:50.346Z,95.90
2018-09-22T19:30:24.416Z,95.50
2018-09-22T19:32:58.680Z,95.50
2018-09-22T19:35:31.176Z,95.60
2018-09-22T19:38:04.617Z,95.50
2018-09-22T19:40:38.028Z,95.40
2018-09-22T19:43:12.184Z,95.40
2018-09-22T19:45:46.413Z,95.40
2018-09-22T19:48:25.784Z,95.40
2018-09-22T19:51:00.819Z,95.70
2018-09-22T19:53:29.744Z,95.90
2018-09-22T19:55:58.611Z,96.00
2018-09-22T19:58:27.574Z,96.00
2018-09-22T20:00:56.492Z,96.10
2018-09-22T20:03:25.387Z,96.20
2018-09-22T20:05:54.301Z,96.40
2018-09-22T20:08:23.128Z,96.00
2018-09-22T20:10:52.020Z,96.10
2018-09-22T20:13:20.856Z,96.10
2018-09-22T20:15:49.804Z,96.10
2018-09-22T20:18:18.636Z,96.00
2018-09-22T20:20:47.525Z,96.10
2018-09-22T20:23:16.388Z,96.10
2018-09-22T20:25:45.346Z,96.10
2018-09-22T20:28:14.320Z,96.10
2018-09-22T20:30:43.220Z,95.90
2018-09-22T20:33:12.075Z,96.20
2018-09-22T20:35:41.034Z,95.90
2018-09-22T20:38:09.864Z,96.10
2018-09-22T20:40:38.866Z,96.20
2018-09-22T20:43:07.756Z,96.20
2018-09-22T20:45:36.596Z,96.20
2018-09-22T20:48:05.564Z,96.30
2018-09-22T20:50:34.426Z,96.10
2018-09-22T20:53:03.364Z,96.00
2018-09-22T20:55:32.227Z,95.90
2018-09-22T20:58:01.101Z,95.70
2018-09-22T21:00:29.971Z,95.70
2018-09-22T21:02:58.836Z,95.70
2018-09-22T21:05:27.731Z,95.80
2018-09-22T21:07:56.605Z,95.90
2018-09-22T21:10:25.514Z,96.10
2018-09-22T21:12:54.386Z,96.30
2018-09-22T21:15:23.232Z,96.40
2018-09-22T21:17:52.144Z,96.30
2018-09-22T21:20:20.980Z,96.50
2018-09-22T21:22:49.877Z,96.80
2018-09-22T21:25:18.724Z,97.00
2018-09-22T21:27:47.626Z,96.90
2018-09-22T21:30:16.457Z,97.00
2018-09-22T21:32:45.324Z,97.00
2018-09-22T21:35:14.188Z,97.40
2018-09-22T21:37:43.069Z,97.20
2018-09-22T21:40:11.924Z,97.00
2018-09-22T21:42:40.804Z,97.00
2018-09-22T21:45:09.647Z,97.10
2018-09-22T21:47:38.548Z,97.00
2018-09-22T21:50:07.488Z,96.90
2018-09-22T21:52:36.440Z,96.80
2018-09-22T21:55:05.369Z,96.80
2018-09-22T21:57:34.209Z,96.80
2018-09-22T22:00:03.248Z,96.80
2018-09-22T22:02:32.104Z,96.60
2018-09-22T22:05:01.202Z,96.50
2018-09-22T22:07:30.040Z,96.50
2018-09-22T22:09:58.915Z,96.50
2018-09-22T22:12:27.839Z,96.30
2018-09-22T22:14:56.772Z,96.50
2018-09-22T22:17:25.636Z,96.60
2018-09-22T22:19:54.512Z,96.60
2018-09-22T22:22:23.343Z,96.70
2018-09-22T22:24:52.236Z,96.60
2018-09-22T22:27:21.089Z,96.60
2018-09-22T22:29:50.012Z,96.60
2018-09-22T22:32:18.971Z,96.60
2018-09-22T22:34:47.864Z,96.60
2018-09-22T22:37:16.749Z,96.60
2018-09-22T22:39:45.609Z,96.60
2018-09-22T22:42:14.473Z,96.50
2018-09-22T22:44:43.330Z,96.40
2018-09-22T22:47:12.211Z,96.30
2018-09-22T22:49:41.052Z,96.30
2018-09-22T22:52:09.893Z,96.30
2018-09-22T22:54:38.784Z,96.20
2018-09-22T22:57:07.639Z,96.20
2018-09-22T22:59:36.541Z,96.20
2018-09-22T23:02:05.448Z,96.20
2018-09-22T23:04:34.338Z,96.20
2018-09-22T23:07:03.180Z,96.20
2018-09-22T23:09:32.040Z,96.30
2018-09-22T23:12:00.880Z,96.30
2018-09-22T23:14:29.736Z,96.40
2018-09-22T23:16:58.595Z,96.50
2018-09-22T23:19:27.513Z,96.60
2018-09-22T23:21:56.373Z,96.80
2018-09-22T23:24:25.249Z,96.80
2018-09-22T23:26:54.084Z,96.80
2018-09-22T23:29:22.980Z,96.90
2018-09-22T23:31:51.813Z,96.90
2018-09-22T23:34:20.696Z,96.90
2018-09-22T23:36:49.533Z,96.90
2018-09-22T23:39:18.466Z,96.90
2018-09-22T23:41:47.394Z,97.00
2018-09-22T23:44:16.501Z,97.00
2018-09-22T23:46:45.460Z,97.00
2018-09-22T23:49:14.361Z,97.00
2018-09-22T23:51:43.218Z,97.20
2018-09-22T23:54:12.105Z,97.30
2018-09-22T23:56:40.941Z,97.40
2018-09-22T23:59:09.836Z,97.40
